createdAt,value
2023-05-05T00:00:04.022Z,3.22
2023-05-05T00:02:31.197Z,3.70
2023-05-05T00:04:57.921Z,2.97
2023-05-05T00:07:24.532Z,3.40
2023-05-05T00:09:52.483Z,2.95
2023-05-05T00:12:19.221Z,2.53
2023-05-05T00:14:45.850Z,3.08
2023-05-05T00:17:12.547Z,2.90
2023-05-05T00:19:40.885Z,2.75
2023-05-05T00:22:07.571Z,3.55
2023-05-05T00:24:34.220Z,3.22
2023-05-05T00:27:02.251Z,2.90
2023-05-05T00:29:29.035Z,2.80
2023-05-05T00:31:55.845Z,3.08
2023-05-05T00:34:22.571Z,2.47
2023-05-05T00:36:49.224Z,2.83
2023-05-05T00:39:16.218Z,3.55
2023-05-05T00:41:42.816Z,2.65
2023-05-05T00:44:10.783Z,3.22
2023-05-05T00:46:37.503Z,2.63
2023-05-05T00:49:04.495Z,3.08
2023-05-05T00:51:31.509Z,3.00
2023-05-05T00:53:58.394Z,3.30
2023-05-05T00:56:25.267Z,2.90
2023-05-05T00:58:51.857Z,3.08
2023-05-05T01:01:19.949Z,2.45
2023-05-05T01:03:47.207Z,3.03
2023-05-05T01:06:31.188Z,3.22
2023-05-05T01:11:35.532Z,3.15
2023-05-05T01:14:11.975Z,2.92
2023-05-05T01:16:49.331Z,2.97
2023-05-05T01:19:31.060Z,2.53
2023-05-05T01:22:02.084Z,3.20
2023-05-05T01:24:55.584Z,3.00
2023-05-05T01:27:34.187Z,3.60
2023-05-05T01:30:16.943Z,3.38
2023-05-05T01:32:50.667Z,3.08
2023-05-05T01:35:20.842Z,2.90
2023-05-05T01:37:51.540Z,2.53
2023-05-05T01:40:22.459Z,3.08
2023-05-05T01:42:50.761Z,3.05
2023-05-05T01:45:20.536Z,2.90
2023-05-05T01:47:49.322Z,3.30
2023-05-05T01:50:16.691Z,2.83
2023-05-05T01:52:46.359Z,3.20
2023-05-05T01:55:16.280Z,3.10
2023-05-05T01:57:45.066Z,3.40
2023-05-05T02:00:13.228Z,3.33
2023-05-05T02:02:41.787Z,4.82
2023-05-05T02:05:11.053Z,3.33
2023-05-05T02:07:38.701Z,3.05
2023-05-05T02:10:08.125Z,2.90
2023-05-05T02:12:37.233Z,3.13
2023-05-05T02:15:04.806Z,3.60
2023-05-05T02:17:32.105Z,2.75
2023-05-05T02:20:00.581Z,3.35
2023-05-05T02:22:28.741Z,3.35
2023-05-05T02:24:55.600Z,2.90
2023-05-05T02:27:24.241Z,3.05
2023-05-05T02:29:53.964Z,3.50
2023-05-05T02:32:34.128Z,3.10
2023-05-05T02:35:09.129Z,3.22
2023-05-05T02:37:39.243Z,3.22
2023-05-05T02:40:08.947Z,2.85
2023-05-05T02:42:39.852Z,3.47
2023-05-05T02:45:10.927Z,3.50
2023-05-05T02:47:38.618Z,2.90
2023-05-05T02:50:07.133Z,3.13
2023-05-05T02:52:34.898Z,3.13
2023-05-05T02:55:04.609Z,3.05
2023-05-05T02:57:37.540Z,3.50
2023-05-05T03:00:10.495Z,3.03
2023-05-05T03:02:44.683Z,2.90
2023-05-05T03:05:16.907Z,3.95
2023-05-05T03:07:53.699Z,3.20
2023-05-05T03:10:28.619Z,3.28
2023-05-05T03:12:58.163Z,3.08
2023-05-05T03:15:28.304Z,3.08
2023-05-05T03:17:56.529Z,3.35
2023-05-05T03:20:24.133Z,3.42
2023-05-05T03:22:51.661Z,3.42
2023-05-05T03:25:18.339Z,3.35
2023-05-05T03:27:46.300Z,3.08
2023-05-05T03:30:13.421Z,2.97
2023-05-05T03:32:40.251Z,3.58
2023-05-05T03:35:07.552Z,3.38
2023-05-05T03:37:34.159Z,3.65
2023-05-05T03:40:00.844Z,3.15
2023-05-05T03:42:27.440Z,3.80
2023-05-05T03:44:55.514Z,3.60
2023-05-05T03:47:22.147Z,3.97
2023-05-05T03:49:48.755Z,3.55
2023-05-05T03:52:15.613Z,3.30
2023-05-05T03:54:42.185Z,2.97
2023-05-05T03:57:08.848Z,3.40
2023-05-05T03:59:35.509Z,3.90
2023-05-05T04:02:03.501Z,3.20
2023-05-05T04:04:30.341Z,3.15
2023-05-05T04:06:57.013Z,3.20
2023-05-05T04:09:23.692Z,3.47
2023-05-05T04:11:50.329Z,3.47
2023-05-05T04:14:17.043Z,3.28
2023-05-05T04:16:43.720Z,2.92
2023-05-05T04:19:11.943Z,3.33
2023-05-05T04:21:38.605Z,3.00
2023-05-05T04:24:05.956Z,3.30
2023-05-05T04:26:32.622Z,4.05
2023-05-05T04:28:59.309Z,3.60
2023-05-05T04:31:25.998Z,3.10
2023-05-05T04:33:52.753Z,2.75
2023-05-05T04:36:20.756Z,3.20
2023-05-05T04:38:47.459Z,2.67
2023-05-05T04:41:14.262Z,3.67
2023-05-05T04:43:40.958Z,3.17
2023-05-05T04:46:07.732Z,2.80
2023-05-05T04:48:34.513Z,3.22
2023-05-05T04:51:04.286Z,3.40
2023-05-05T04:53:32.278Z,3.42
2023-05-05T04:55:59.692Z,3.22
2023-05-05T04:58:26.344Z,3.53
2023-05-05T05:00:52.959Z,3.70
2023-05-05T05:03:19.836Z,3.60
2023-05-05T05:05:46.584Z,3.80
2023-05-05T05:08:15.386Z,4.15
2023-05-05T05:10:43.540Z,3.80
2023-05-05T05:13:12.417Z,4.30
2023-05-05T05:15:42.005Z,3.72
2023-05-05T05:18:08.633Z,3.90
2023-05-05T05:20:35.269Z,3.80
2023-05-05T05:23:02.201Z,3.75
2023-05-05T05:25:28.817Z,3.63
2023-05-05T05:28:08.733Z,4.47
2023-05-05T05:30:36.681Z,4.00
2023-05-05T05:33:03.911Z,4.30
2023-05-05T05:35:30.583Z,3.30
2023-05-05T05:37:57.235Z,4.28
2023-05-05T05:40:23.914Z,4.10
2023-05-05T05:42:50.593Z,4.00
2023-05-05T05:45:18.635Z,3.42
2023-05-05T05:47:45.273Z,4.00
2023-05-05T05:50:12.078Z,4.20
2023-05-05T05:52:38.757Z,4.63
2023-05-05T05:55:06.962Z,5.13
2023-05-05T05:57:33.596Z,4.35
2023-05-05T06:00:01.938Z,4.40
2023-05-05T06:02:30.231Z,3.97
2023-05-05T06:04:56.879Z,4.07
2023-05-05T06:07:23.437Z,4.70
2023-05-05T06:09:50.100Z,4.95
2023-05-05T06:12:16.676Z,4.38
2023-05-05T06:14:43.521Z,4.20
2023-05-05T06:17:10.119Z,4.18
2023-05-05T06:19:38.177Z,4.32
2023-05-05T06:22:04.907Z,4.78
2023-05-05T06:24:31.561Z,4.60
2023-05-05T06:26:58.268Z,4.88
2023-05-05T06:29:24.978Z,5.20
2023-05-05T06:31:51.714Z,5.20
2023-05-05T06:34:18.462Z,4.85
2023-05-05T06:36:46.516Z,4.75
2023-05-05T06:39:15.288Z,4.70
2023-05-05T06:41:42.534Z,5.57
2023-05-05T06:44:09.144Z,4.75
2023-05-05T06:46:35.838Z,5.15
2023-05-05T06:49:02.597Z,4.82
2023-05-05T06:51:29.667Z,5.82
2023-05-05T06:53:57.603Z,4.82
2023-05-05T06:56:24.317Z,9.10
2023-05-05T06:58:50.942Z,4.80
2023-05-05T07:01:17.577Z,5.65
2023-05-05T07:03:44.739Z,5.38
2023-05-05T07:06:11.438Z,4.57
2023-05-05T07:08:38.063Z,5.40
2023-05-05T07:11:06.133Z,4.78
2023-05-05T07:13:32.748Z,4.75
2023-05-05T07:15:59.757Z,4.75
2023-05-05T07:18:26.397Z,4.38
2023-05-05T07:20:53.011Z,4.88
2023-05-05T07:23:19.840Z,5.05
2023-05-05T07:25:46.758Z,4.22
2023-05-05T07:28:14.991Z,4.95
2023-05-05T07:30:41.939Z,4.60
2023-05-05T07:33:08.978Z,4.88
2023-05-05T07:35:35.996Z,5.03
2023-05-05T07:38:02.909Z,4.82
2023-05-05T07:40:29.690Z,4.53
2023-05-05T07:42:56.719Z,4.47
2023-05-05T07:45:24.952Z,4.80
2023-05-05T07:47:51.971Z,4.57
2023-05-05T07:50:18.895Z,4.40
2023-05-05T07:52:49.977Z,3.83
2023-05-05T07:55:21.221Z,4.63
2023-05-05T07:57:48.473Z,4.32
2023-05-05T08:00:16.284Z,4.20
2023-05-05T08:02:44.578Z,4.30
2023-05-05T08:05:11.920Z,4.53
2023-05-05T08:07:39.027Z,4.47
2023-05-05T08:10:07.272Z,5.05
2023-05-05T08:12:34.076Z,4.30
2023-05-05T08:15:00.831Z,4.95
2023-05-05T08:17:27.856Z,4.78
2023-05-05T08:19:56.210Z,4.40
2023-05-05T08:22:23.028Z,5.07
2023-05-05T08:24:49.820Z,4.85
2023-05-05T08:27:16.661Z,3.78
2023-05-05T08:29:43.572Z,3.90
2023-05-05T08:32:10.470Z,5.40
2023-05-05T08:34:37.281Z,4.40
2023-05-05T08:37:05.745Z,5.65
2023-05-05T08:39:32.706Z,5.05
2023-05-05T08:41:59.767Z,4.40
2023-05-05T08:44:26.732Z,5.32
2023-05-05T08:46:54.701Z,4.53
2023-05-05T08:49:22.583Z,4.63
2023-05-05T08:51:52.336Z,4.72
2023-05-05T08:54:27.374Z,4.40
2023-05-05T08:56:57.385Z,4.65
2023-05-05T08:59:24.667Z,4.90
2023-05-05T09:01:52.946Z,4.47
2023-05-05T09:04:20.225Z,4.75
2023-05-05T09:06:47.261Z,5.05
2023-05-05T09:09:14.814Z,4.53
2023-05-05T09:11:45.043Z,5.00
2023-05-05T09:14:12.314Z,4.45
2023-05-05T09:16:41.458Z,4.82
2023-05-05T09:19:08.344Z,5.57
2023-05-05T09:21:35.378Z,4.88
2023-05-05T09:24:08.719Z,5.40
2023-05-05T09:26:37.296Z,4.88
2023-05-05T09:29:06.408Z,5.40
2023-05-05T09:31:34.899Z,4.97
2023-05-05T09:34:13.299Z,5.00
2023-05-05T09:36:44.988Z,5.07
2023-05-05T09:39:11.962Z,5.38
2023-05-05T09:41:39.868Z,5.15
2023-05-05T09:44:09.621Z,5.55
2023-05-05T09:46:36.747Z,4.78
2023-05-05T09:49:15.457Z,4.95
2023-05-05T09:51:42.457Z,5.05
2023-05-05T09:54:09.472Z,5.32
2023-05-05T09:56:38.295Z,5.18
2023-05-05T09:59:10.852Z,4.97
2023-05-05T10:01:38.482Z,4.97
2023-05-05T10:04:06.003Z,5.07
2023-05-05T10:06:44.769Z,4.65
2023-05-05T10:09:11.893Z,5.68
2023-05-05T10:11:41.308Z,4.97
2023-05-05T10:14:13.786Z,4.75
2023-05-05T10:16:46.616Z,4.50
2023-05-05T10:19:15.505Z,4.75
2023-05-05T10:21:47.514Z,4.38
2023-05-05T10:24:18.357Z,4.60
2023-05-05T10:26:46.662Z,4.90
2023-05-05T10:29:23.229Z,4.55
2023-05-05T10:31:53.141Z,4.13
2023-05-05T10:34:26.863Z,4.82
2023-05-05T10:36:54.098Z,3.92
2023-05-05T10:39:22.738Z,3.88
2023-05-05T10:41:51.415Z,4.53
2023-05-05T10:44:19.921Z,4.20
2023-05-05T10:46:47.399Z,4.00
2023-05-05T10:49:35.577Z,3.97
2023-05-05T10:52:10.140Z,4.97
2023-05-05T10:54:43.464Z,4.07
2023-05-05T10:59:42.587Z,3.53
2023-05-05T11:02:20.341Z,3.55
2023-05-05T11:05:09.016Z,4.22
2023-05-05T11:07:36.676Z,4.18
2023-05-05T11:10:05.176Z,3.75
2023-05-05T11:12:33.585Z,4.47
2023-05-05T11:15:37.301Z,4.18
2023-05-05T11:18:07.940Z,3.90
2023-05-05T11:21:04.369Z,3.97
2023-05-05T11:23:31.530Z,4.10
2023-05-05T11:25:58.623Z,4.00
2023-05-05T11:28:27.137Z,4.20
2023-05-05T11:31:18.938Z,4.45
2023-05-05T11:33:47.900Z,4.40
2023-05-05T11:36:16.075Z,4.15
2023-05-05T11:39:07.718Z,4.35
2023-05-05T11:41:58.300Z,3.90
2023-05-05T11:44:30.891Z,3.67
2023-05-05T11:47:29.801Z,3.80
2023-05-05T11:49:58.727Z,4.10
2023-05-05T11:52:26.795Z,3.55
2023-05-05T11:54:54.000Z,4.05
2023-05-05T11:57:27.854Z,3.45
2023-05-05T11:59:56.463Z,3.40
2023-05-05T12:02:26.469Z,3.40
2023-05-05T12:04:53.788Z,3.72
2023-05-05T12:07:23.512Z,3.83
2023-05-05T12:09:50.732Z,3.75
2023-05-05T12:12:18.072Z,3.72
2023-05-05T12:14:46.727Z,4.45
2023-05-05T12:17:13.623Z,3.17
2023-05-05T12:19:45.666Z,3.83
2023-05-05T12:22:19.149Z,3.65
2023-05-05T12:24:54.877Z,4.03
2023-05-05T12:27:22.338Z,3.47
2023-05-05T12:29:49.722Z,3.20
2023-05-05T12:32:21.734Z,3.65
2023-05-05T12:34:50.436Z,3.70
2023-05-05T12:37:18.227Z,4.65
2023-05-05T12:39:45.316Z,2.90
2023-05-05T12:42:13.837Z,4.00
2023-05-05T12:44:40.989Z,3.20
2023-05-05T12:47:07.993Z,4.20
2023-05-05T12:49:45.962Z,3.67
2023-05-05T12:52:13.198Z,3.17
2023-05-05T12:54:54.735Z,3.85
2023-05-05T12:57:23.620Z,3.28
2023-05-05T12:59:51.056Z,3.28
2023-05-05T13:02:18.493Z,3.10
2023-05-05T13:04:50.430Z,3.15
2023-05-05T13:07:18.736Z,3.72
2023-05-05T13:09:46.171Z,3.05
2023-05-05T13:12:13.448Z,3.38
2023-05-05T13:14:41.931Z,3.22
2023-05-05T13:17:09.070Z,3.55
2023-05-05T13:19:35.988Z,3.10
2023-05-05T13:22:03.175Z,3.17
2023-05-05T13:24:46.379Z,3.78
2023-05-05T13:27:17.094Z,3.20
2023-05-05T13:29:45.727Z,3.08
2023-05-05T13:32:12.655Z,4.00
2023-05-05T13:34:39.683Z,4.45
2023-05-05T13:37:06.717Z,4.07
2023-05-05T13:39:33.857Z,3.03
2023-05-05T13:42:01.284Z,3.35
2023-05-05T13:44:28.157Z,3.20
2023-05-05T13:46:56.595Z,3.17
2023-05-05T13:49:23.458Z,2.80
2023-05-05T13:51:50.422Z,2.75
2023-05-05T13:54:17.390Z,3.78
2023-05-05T13:56:44.218Z,3.13
2023-05-05T13:59:11.194Z,2.60
2023-05-05T14:01:38.381Z,2.78
2023-05-05T14:04:06.982Z,3.30
2023-05-05T14:06:34.007Z,2.58
2023-05-05T14:09:01.219Z,3.13
2023-05-05T14:11:28.227Z,2.60
2023-05-05T14:13:55.137Z,2.70
2023-05-05T14:16:22.073Z,3.55
2023-05-05T14:18:48.879Z,3.10
2023-05-05T14:21:17.156Z,2.80
2023-05-05T14:23:44.179Z,2.80
2023-05-05T14:26:11.088Z,3.35
2023-05-05T14:28:38.036Z,2.70
2023-05-05T14:31:05.382Z,2.97
2023-05-05T14:33:32.295Z,2.58
2023-05-05T14:35:59.101Z,3.10
2023-05-05T14:38:27.465Z,2.97
2023-05-05T14:40:54.664Z,3.40
2023-05-05T14:43:21.713Z,3.05
2023-05-05T14:45:48.605Z,2.47
2023-05-05T14:48:15.469Z,2.53
2023-05-05T14:50:42.461Z,2.60
2023-05-05T14:53:09.338Z,2.83
2023-05-05T14:55:38.244Z,2.47
2023-05-05T14:58:05.455Z,2.85
2023-05-05T15:00:32.271Z,2.70
2023-05-05T15:02:59.285Z,2.67
2023-05-05T15:05:26.525Z,3.13
2023-05-05T15:07:53.401Z,2.58
2023-05-05T15:10:21.943Z,3.05
2023-05-05T15:12:50.323Z,2.80
2023-05-05T15:15:17.507Z,3.00
2023-05-05T15:17:44.312Z,2.22
2023-05-05T15:20:12.060Z,2.95
2023-05-05T15:22:39.161Z,3.38
2023-05-05T15:25:07.370Z,3.03
2023-05-05T15:27:34.458Z,2.80
2023-05-05T15:30:02.891Z,3.05
2023-05-05T15:32:29.758Z,2.78
2023-05-05T15:34:57.048Z,2.95
2023-05-05T15:37:23.980Z,2.80
2023-05-05T15:39:50.745Z,2.72
2023-05-05T15:42:17.625Z,2.53
2023-05-05T15:44:44.539Z,2.50
2023-05-05T15:47:12.949Z,3.10
2023-05-05T15:49:39.941Z,3.33
2023-05-05T15:52:06.815Z,2.90
2023-05-05T15:54:33.860Z,3.35
2023-05-05T15:57:01.014Z,2.42
2023-05-05T15:59:27.781Z,3.20
2023-05-05T16:01:54.645Z,2.85
2023-05-05T16:04:23.299Z,2.83
2023-05-05T16:06:50.046Z,3.92
2023-05-05T16:09:16.952Z,3.38
2023-05-05T16:11:43.947Z,4.78
2023-05-05T16:14:10.957Z,4.00
2023-05-05T16:16:37.782Z,2.75
2023-05-05T16:19:04.811Z,2.67
2023-05-05T16:21:33.146Z,3.20
2023-05-05T16:27:21.606Z,3.13
2023-05-05T16:33:10.397Z,3.22
2023-05-05T16:35:37.346Z,3.10
2023-05-05T16:38:05.929Z,2.60
2023-05-05T16:40:32.678Z,3.03
2023-05-05T16:42:59.504Z,3.13
2023-05-05T16:45:26.656Z,2.88
2023-05-05T16:47:53.696Z,3.00
2023-05-05T16:50:20.665Z,2.70
2023-05-05T16:52:47.728Z,3.05
2023-05-05T16:55:16.172Z,2.90
2023-05-05T16:57:43.023Z,2.80
2023-05-05T17:00:10.735Z,3.22
2023-05-05T17:02:37.757Z,2.90
2023-05-05T17:05:05.560Z,3.25
2023-05-05T17:07:32.633Z,3.13
2023-05-05T17:09:59.533Z,3.00
2023-05-05T17:12:27.981Z,4.03
2023-05-05T17:14:54.869Z,2.70
2023-05-05T17:17:21.914Z,3.35
2023-05-05T17:19:48.965Z,3.60
2023-05-05T17:22:16.072Z,3.10
2023-05-05T17:24:42.836Z,3.13
2023-05-05T17:27:09.645Z,3.60
2023-05-05T17:29:37.983Z,3.20
2023-05-05T17:32:05.526Z,3.97
2023-05-05T17:34:32.389Z,3.38
2023-05-05T17:36:59.384Z,3.67
2023-05-05T17:39:26.298Z,3.28
2023-05-05T17:41:53.454Z,3.28
2023-05-05T17:44:20.504Z,3.38
2023-05-05T17:46:49.000Z,2.90
2023-05-05T17:49:15.812Z,3.47
2023-05-05T17:51:42.725Z,2.97
2023-05-05T17:54:09.598Z,3.10
2023-05-05T17:56:36.373Z,3.45
2023-05-05T17:59:03.206Z,3.50
2023-05-05T18:01:30.113Z,3.15
2023-05-05T18:03:58.435Z,2.92
2023-05-05T18:06:25.398Z,3.35
2023-05-05T18:08:52.165Z,3.10
2023-05-05T18:11:19.075Z,3.50
2023-05-05T18:13:46.058Z,3.28
2023-05-05T18:16:12.923Z,4.15
2023-05-05T18:18:40.230Z,3.92
2023-05-05T18:21:08.606Z,3.35
2023-05-05T18:23:35.652Z,3.80
2023-05-05T18:26:02.408Z,3.28
2023-05-05T18:28:29.221Z,3.00
2023-05-05T18:30:56.189Z,3.65
2023-05-05T18:33:23.131Z,4.47
2023-05-05T18:35:50.417Z,4.05
2023-05-05T18:38:18.861Z,3.92
2023-05-05T18:40:45.661Z,4.70
2023-05-05T18:43:12.462Z,4.78
2023-05-05T18:45:39.429Z,4.55
2023-05-05T18:48:06.672Z,3.90
2023-05-05T18:50:33.876Z,4.38
2023-05-05T18:53:00.768Z,4.90
2023-05-05T18:55:30.266Z,4.82
2023-05-05T18:57:57.356Z,4.20
2023-05-05T19:00:24.248Z,4.40
2023-05-05T19:02:51.312Z,4.88
2023-05-05T19:05:18.449Z,4.90
2023-05-05T19:07:45.351Z,4.60
2023-05-05T19:10:12.160Z,4.40
2023-05-05T19:12:40.697Z,4.10
2023-05-05T19:15:08.704Z,4.13
2023-05-05T19:17:35.641Z,5.05
2023-05-05T19:20:02.596Z,4.70
2023-05-05T19:22:29.776Z,4.78
2023-05-05T19:24:56.642Z,4.32
2023-05-05T19:27:23.568Z,4.97
2023-05-05T19:29:51.930Z,4.90
2023-05-05T19:32:19.601Z,4.43
2023-05-05T19:34:46.759Z,4.43
2023-05-05T19:37:13.647Z,4.68
2023-05-05T19:39:40.602Z,4.40
2023-05-05T19:42:07.484Z,4.03
2023-05-05T19:44:34.269Z,3.67
2023-05-05T19:47:02.586Z,5.85
2023-05-05T19:49:29.573Z,4.38
2023-05-05T19:51:56.772Z,4.28
2023-05-05T19:54:23.657Z,4.30
2023-05-05T19:56:50.400Z,4.72
2023-05-05T19:59:17.338Z,4.13
2023-05-05T20:01:43.984Z,4.47
2023-05-05T20:04:12.138Z,4.38
2023-05-05T20:06:38.817Z,4.32
2023-05-05T20:09:05.806Z,4.22
2023-05-05T20:11:32.637Z,4.70
2023-05-05T20:13:59.519Z,4.53
2023-05-05T20:16:26.464Z,4.00
2023-05-05T20:18:53.365Z,4.40
2023-05-05T20:21:21.480Z,4.68
2023-05-05T20:23:48.277Z,3.58
2023-05-05T20:26:15.042Z,4.15
2023-05-05T20:28:45.081Z,4.43
2023-05-05T20:31:13.681Z,4.25
2023-05-05T20:33:40.444Z,4.03
2023-05-05T20:36:07.323Z,4.00
2023-05-05T20:38:35.277Z,4.15
2023-05-05T20:41:02.055Z,4.18
2023-05-05T20:43:29.029Z,4.38
2023-05-05T20:45:55.815Z,4.93
2023-05-05T20:48:22.483Z,4.82
2023-05-05T20:50:49.201Z,4.60
2023-05-05T20:53:16.329Z,3.80
2023-05-05T20:55:44.583Z,4.88
2023-05-05T20:58:11.286Z,4.65
2023-05-05T21:00:38.200Z,4.32
2023-05-05T21:03:05.141Z,4.25
2023-05-05T21:05:32.032Z,4.30
2023-05-05T21:08:00.873Z,4.63
2023-05-05T21:10:28.223Z,3.50
2023-05-05T21:12:56.282Z,4.35
2023-05-05T21:15:23.311Z,4.10
2023-05-05T21:17:50.012Z,4.13
2023-05-05T21:20:17.073Z,4.00
2023-05-05T21:22:43.906Z,4.35
2023-05-05T21:25:12.531Z,4.10
2023-05-05T21:27:39.235Z,4.32
2023-05-05T21:30:10.662Z,3.72
2023-05-05T21:32:37.884Z,4.85
2023-05-05T21:35:05.442Z,3.70
2023-05-05T21:37:32.086Z,4.68
2023-05-05T21:39:58.736Z,3.97
2023-05-05T21:42:25.705Z,4.30
2023-05-05T21:44:52.370Z,4.75
2023-05-05T21:47:20.405Z,3.90
2023-05-05T21:49:47.056Z,4.20
2023-05-05T21:52:13.780Z,4.55
2023-05-05T21:54:40.347Z,4.35
2023-05-05T21:57:07.074Z,4.50
2023-05-05T21:59:34.374Z,4.50
2023-05-05T22:02:01.060Z,4.38
2023-05-05T22:04:29.080Z,4.30
2023-05-05T22:06:55.687Z,5.15
2023-05-05T22:09:22.425Z,4.45
2023-05-05T22:11:51.062Z,4.40
2023-05-05T22:14:17.757Z,4.18
2023-05-05T22:16:44.473Z,4.63
2023-05-05T22:19:11.184Z,4.80
2023-05-05T22:21:39.216Z,4.88
2023-05-05T22:24:06.754Z,4.85
2023-05-05T22:26:33.456Z,4.50
2023-05-05T22:29:00.133Z,5.32
2023-05-05T22:31:26.872Z,4.97
2023-05-05T22:33:53.479Z,4.60
2023-05-05T22:36:20.128Z,5.00
2023-05-05T22:38:48.143Z,5.10
2023-05-05T22:41:14.830Z,5.20
2023-05-05T22:43:41.689Z,5.45
2023-05-05T22:46:08.346Z,5.03
2023-05-05T22:48:34.954Z,5.50
2023-05-05T22:51:01.670Z,5.13
2023-05-05T22:53:28.324Z,5.55
2023-05-05T22:55:56.340Z,5.20
2023-05-05T22:58:23.594Z,5.10
2023-05-05T23:00:50.245Z,4.97
2023-05-05T23:03:16.876Z,5.32
2023-05-05T23:05:43.680Z,4.93
2023-05-05T23:08:10.316Z,5.32
2023-05-05T23:10:37.125Z,5.20
2023-05-05T23:13:05.178Z,5.72
2023-05-05T23:15:31.914Z,5.22
2023-05-05T23:17:58.519Z,5.43
2023-05-05T23:20:25.438Z,5.55
2023-05-05T23:22:52.127Z,5.45
2023-05-05T23:25:18.872Z,5.80
2023-05-05T23:27:45.569Z,5.78
2023-05-05T23:30:14.384Z,6.05
2023-05-05T23:32:41.252Z,5.50
2023-05-05T23:35:09.163Z,6.00
2023-05-05T23:37:36.042Z,5.90
2023-05-05T23:40:02.934Z,6.15
2023-05-05T23:42:29.787Z,6.47
2023-05-05T23:44:56.417Z,5.65
2023-05-05T23:47:24.447Z,6.63
2023-05-05T23:49:51.077Z,5.13
2023-05-05T23:52:17.744Z,5.47
2023-05-05T23:54:44.977Z,5.82
2023-05-05T23:57:11.559Z,5.35
2023-05-05T23:59:39.022Z,6.28
